Time;durP1;ratioP1;P1;durP2;ratioP2;P2;SDS_P1;SDS_P2;PMS_P1;PMS_P2;Temp;Humidity;BMP_temperature;BMP_pressure;BME280_temperature;BME280_humidity;BME280_pressure;Samples;Min_cycle;Max_cycle;Signal;HPM_P1;HPM_P2
2022/03/17 00:01:26;;;;;;;0.77;0.77;;;;;;;;;;5092130;28;20459;-77
2022/03/17 00:03:51;;;;;;;1.20;1.10;;;;;;;;;;5092365;28;20031;-76
2022/03/17 00:06:17;;;;;;;1.50;1.45;;;;;;;;;;5092287;28;20069;-76
2022/03/17 00:08:42;;;;;;;0.77;0.77;;;;;;;;;;5092142;28;20399;-75
2022/03/17 00:11:07;;;;;;;1.13;1.02;;;;;;;;;;5092098;28;20020;-76
2022/03/17 00:13:33;;;;;;;2.42;2.20;;;;;;;;;;5092082;28;20024;-78
2022/03/17 00:15:58;;;;;;;10.35;3.08;;;;;;;;;;5092042;28;20016;-76
2022/03/17 00:18:23;;;;;;;2.08;1.98;;;;;;;;;;5092511;28;20020;-79
2022/03/17 00:20:49;;;;;;;1.10;1.10;;;;;;;;;;5092041;28;20027;-74
2022/03/17 00:23:14;;;;;;;2.15;2.05;;;;;;;;;;5091933;28;20065;-77
2022/03/17 00:25:40;;;;;;;2.60;2.50;;;;;;;;;;5091911;28;20099;-77
2022/03/17 00:28:05;;;;;;;0.45;0.45;;;;;;;;;;5091867;28;20123;-76
2022/03/17 00:30:31;;;;;;;3.70;2.15;;;;;;;;;;5091957;28;20016;-78
2022/03/17 00:32:56;;;;;;;3.60;1.77;;;;;;;;;;5091500;28;20047;-77
2022/03/17 00:35:38;;;;;;;1.60;1.50;;;;;;;;;;5091711;28;20101;-76
2022/03/17 00:38:07;;;;;;;1.85;1.75;;;;;;;;;;5091639;28;20035;-76
2022/03/17 00:40:32;;;;;;;1.88;1.67;;;;;;;;;;5091679;28;20480;-76
2022/03/17 00:42:59;;;;;;;1.15;1.15;;;;;;;;;;5091642;28;20016;-78
2022/03/17 00:45:25;;;;;;;1.50;1.48;;;;;;;;;;5091529;28;20054;-78
2022/03/17 00:47:50;;;;;;;1.65;0.90;;;;;;;;;;5091766;28;20056;-77
2022/03/17 00:50:16;;;;;;;1.77;1.48;;;;;;;;;;5091542;28;20073;-79
2022/03/17 00:52:41;;;;;;;1.13;0.93;;;;;;;;;;5091619;28;20140;-81
2022/03/17 00:55:06;;;;;;;1.03;1.03;;;;;;;;;;5091196;28;20068;-80
2022/03/17 00:57:32;;;;;;;2.90;1.73;;;;;;;;;;5091943;28;20278;-81
2022/03/17 00:59:58;;;;;;;1.95;1.85;;;;;;;;;;5091943;28;20024;-78
2022/03/17 01:02:23;;;;;;;0.55;0.55;;;;;;;;;;5091705;28;20411;-80
2022/03/17 01:04:48;;;;;;;1.52;1.42;;;;;;;;;;5091611;28;20016;-80
2022/03/17 01:07:14;;;;;;;3.97;2.58;;;;;;;;;;5091613;28;20027;-80
2022/03/17 01:09:39;;;;;;;2.72;1.20;;;;;;;;;;5091069;28;20407;-77
2022/03/17 01:12:04;;;;;;;6.72;2.80;;;;;;;;;;5091639;28;20020;-77
2022/03/17 01:14:30;;;;;;;5.53;3.08;;;;;;;;;;5091221;28;20017;-78
2022/03/17 01:16:55;;;;;;;9.73;5.75;;;;;;;;;;5091309;28;20020;-81
2022/03/17 01:19:21;;;;;;;3.88;3.47;;;;;;;;;;5091208;28;20103;-80
2022/03/17 01:21:50;;;;;;;8.07;4.90;;;;;;;;;;5091252;28;20119;-80
2022/03/17 01:24:16;;;;;;;9.48;6.60;;;;;;;;;;5091156;28;20545;-80
2022/03/17 01:26:41;;;;;;;5.85;5.25;;;;;;;;;;5091176;28;20024;-77
2022/03/17 01:29:06;;;;;;;10.80;5.57;;;;;;;;;;5091457;28;20425;-79
2022/03/17 01:31:32;;;;;;;3.30;3.13;;;;;;;;;;5091263;28;20016;-78
2022/03/17 01:33:58;;;;;;;6.80;6.13;;;;;;;;;;5091099;28;20055;-76
2022/03/17 01:36:23;;;;;;;3.83;3.47;;;;;;;;;;5091162;28;20048;-74
2022/03/17 01:38:49;;;;;;;4.82;4.43;;;;;;;;;;5090917;28;20017;-75
2022/03/17 01:41:14;;;;;;;4.38;2.55;;;;;;;;;;5090991;28;20106;-76
2022/03/17 01:43:39;;;;;;;7.05;5.22;;;;;;;;;;5091111;28;20027;-76
2022/03/17 01:46:05;;;;;;;5.28;3.78;;;;;;;;;;5091222;28;20016;-76
2022/03/17 01:48:30;;;;;;;8.95;6.15;;;;;;;;;;5090953;28;20046;-76
2022/03/17 01:50:55;;;;;;;2.78;2.58;;;;;;;;;;5090888;28;20158;-75
2022/03/17 01:53:24;;;;;;;3.20;3.05;;;;;;;;;;5090968;28;20013;-75
2022/03/17 01:55:49;;;;;;;5.10;4.70;;;;;;;;;;5090818;28;20535;-76
2022/03/17 01:58:15;;;;;;;7.05;6.43;;;;;;;;;;5090789;28;20115;-79
2022/03/17 02:00:41;;;;;;;4.82;4.13;;;;;;;;;;5094769;28;20030;-76
2022/03/17 02:03:06;;;;;;;4.32;4.03;;;;;;;;;;5095592;28;20016;-77
2022/03/17 02:05:33;;;;;;;4.18;3.85;;;;;;;;;;5094741;28;20471;-76
2022/03/17 02:07:58;;;;;;;3.33;3.13;;;;;;;;;;5094655;28;20048;-75
2022/03/17 02:10:23;;;;;;;2.95;2.75;;;;;;;;;;5095087;28;20060;-78
2022/03/17 02:15:33;;;;;;;8.30;3.67;;;;;;;;;;5096134;28;20074;-76
2022/03/17 02:17:59;;;;;;;5.70;5.20;;;;;;;;;;5094305;28;20020;-76
2022/03/17 02:20:25;;;;;;;4.50;3.78;;;;;;;;;;5094303;28;20027;-79
2022/03/17 02:22:52;;;;;;;5.75;4.93;;;;;;;;;;5094364;28;20023;-78
2022/03/17 02:25:33;;;;;;;4.75;3.85;;;;;;;;;;5094225;28;20020;-76
2022/03/17 02:27:59;;;;;;;2.95;2.80;;;;;;;;;;5095123;28;20023;-78
2022/03/17 02:30:25;;;;;;;2.58;2.47;;;;;;;;;;5094156;28;20027;-76
2022/03/17 02:32:58;;;;;;;5.20;4.80;;;;;;;;;;5094970;28;20088;-76
2022/03/17 02:35:23;;;;;;;7.90;3.97;;;;;;;;;;5094062;28;20052;-78
2022/03/17 02:37:49;;;;;;;3.72;3.53;;;;;;;;;;5094246;28;20055;-75
2022/03/17 02:40:15;;;;;;;4.35;3.95;;;;;;;;;;5094035;28;20020;-75
2022/03/17 02:42:40;;;;;;;10.98;5.65;;;;;;;;;;5093864;28;20016;-76
2022/03/17 02:45:07;;;;;;;5.97;5.47;;;;;;;;;;5093900;28;20099;-77
2022/03/17 02:47:32;;;;;;;4.28;3.75;;;;;;;;;;5093574;28;20116;-75
2022/03/17 02:49:58;;;;;;;7.22;5.07;;;;;;;;;;5094634;28;20051;-76
2022/03/17 02:52:24;;;;;;;10.82;5.05;;;;;;;;;;5093693;28;20024;-77
2022/03/17 02:54:49;;;;;;;3.67;3.28;;;;;;;;;;5093650;28;20405;-75
2022/03/17 02:57:15;;;;;;;5.88;3.38;;;;;;;;;;5093690;28;20019;-73
2022/03/17 02:59:40;;;;;;;3.47;3.22;;;;;;;;;;5093620;28;20030;-75
2022/03/17 03:02:05;;;;;;;6.95;3.20;;;;;;;;;;5094372;28;20027;-73
2022/03/17 03:04:34;;;;;;;4.10;3.80;;;;;;;;;;5093415;28;20024;-74
2022/03/17 03:07:02;;;;;;;4.30;4.10;;;;;;;;;;5093512;28;20040;-74
2022/03/17 03:09:27;;;;;;;6.70;5.40;;;;;;;;;;5093047;28;20028;-74
2022/03/17 03:11:52;;;;;;;5.65;5.25;;;;;;;;;;5092539;28;20020;-75
2022/03/17 03:14:18;;;;;;;5.00;4.60;;;;;;;;;;5094853;28;20169;-76
2022/03/17 03:16:44;;;;;;;6.68;5.63;;;;;;;;;;5093263;28;20031;-76
2022/03/17 03:19:09;;;;;;;4.38;3.58;;;;;;;;;;5093289;28;20024;-75
2022/03/17 03:21:35;;;;;;;3.85;3.58;;;;;;;;;;5093565;28;20043;-76
2022/03/17 03:24:00;;;;;;;4.22;3.13;;;;;;;;;;5093131;28;20045;-75
2022/03/17 03:26:26;;;;;;;5.40;5.05;;;;;;;;;;5093303;28;20020;-75
2022/03/17 03:28:52;;;;;;;2.88;2.65;;;;;;;;;;5092958;28;20066;-75
2022/03/17 03:31:17;;;;;;;3.08;2.88;;;;;;;;;;5093481;28;20081;-76
2022/03/17 03:33:42;;;;;;;9.63;4.45;;;;;;;;;;5092898;28;20024;-77
2022/03/17 03:38:52;;;;;;;4.90;4.38;;;;;;;;;;5094206;28;20031;-78
2022/03/17 03:41:17;;;;;;;3.53;3.08;;;;;;;;;;5092730;28;20114;-76
2022/03/17 03:43:42;;;;;;;3.75;3.45;;;;;;;;;;5092612;28;20069;-78
2022/03/17 03:46:08;;;;;;;3.88;3.58;;;;;;;;;;5092685;28;20016;-75
2022/03/17 03:48:34;;;;;;;3.28;3.05;;;;;;;;;;5093194;28;20031;-74
2022/03/17 03:50:59;;;;;;;15.25;4.10;;;;;;;;;;5092580;28;20028;-76
2022/03/17 03:54:12;;;;;;;4.25;3.90;;;;;;;;;;5092531;28;20035;-75
2022/03/17 03:56:10;;;;;;;4.28;3.92;;;;;;;;;;5093598;28;20019;-76
2022/03/17 03:58:35;;;;;;;3.97;3.70;;;;;;;;;;5092814;28;20080;-74
2022/03/17 04:01:01;;;;;;;12.05;3.55;;;;;;;;;;5092346;28;20077;-72
2022/03/17 04:03:28;;;;;;;3.60;3.40;;;;;;;;;;5092317;28;20467;-74
2022/03/17 04:05:53;;;;;;;5.22;4.50;;;;;;;;;;5092262;28;20111;-75
2022/03/17 04:08:19;;;;;;;6.83;6.33;;;;;;;;;;5092125;28;20109;-75
2022/03/17 04:10:44;;;;;;;3.53;3.22;;;;;;;;;;5092160;28;20757;-75
2022/03/17 04:13:09;;;;;;;4.75;4.32;;;;;;;;;;5092440;28;20399;-74
2022/03/17 04:15:34;;;;;;;6.13;4.75;;;;;;;;;;5092149;28;20017;-78
2022/03/17 04:18:00;;;;;;;6.05;3.08;;;;;;;;;;5091981;28;20020;-79
2022/03/17 04:20:25;;;;;;;5.03;3.85;;;;;;;;;;5092167;28;20028;-78
2022/03/17 04:22:50;;;;;;;6.93;6.43;;;;;;;;;;5091701;28;20028;-78
2022/03/17 04:25:16;;;;;;;6.80;5.63;;;;;;;;;;5092222;28;20016;-77
2022/03/17 04:27:42;;;;;;;5.03;4.47;;;;;;;;;;5091957;28;20062;-78
2022/03/17 04:30:08;;;;;;;6.70;6.15;;;;;;;;;;5091585;28;20472;-75
2022/03/17 04:32:34;;;;;;;5.15;4.72;;;;;;;;;;5091834;28;20411;-77
2022/03/17 04:34:59;;;;;;;5.03;4.50;;;;;;;;;;5091513;28;20055;-77
2022/03/17 04:37:24;;;;;;;2.97;2.78;;;;;;;;;;5091974;28;20020;-78
2022/03/17 04:39:50;;;;;;;5.82;4.70;;;;;;;;;;5091694;28;20024;-76
2022/03/17 04:42:15;;;;;;;12.30;7.65;;;;;;;;;;5091980;28;20384;-76
2022/03/17 04:44:40;;;;;;;4.63;4.32;;;;;;;;;;5091948;28;20020;-77
2022/03/17 04:47:06;;;;;;;3.85;3.65;;;;;;;;;;5092106;28;20020;-77
2022/03/17 04:49:31;;;;;;;7.53;5.32;;;;;;;;;;5091656;28;20024;-76
2022/03/17 04:51:57;;;;;;;4.70;4.35;;;;;;;;;;5091495;28;20016;-77
2022/03/17 04:54:22;;;;;;;3.78;3.58;;;;;;;;;;5091757;28;20464;-76
2022/03/17 04:56:47;;;;;;;2.83;2.70;;;;;;;;;;5091665;28;20529;-77
2022/03/17 04:59:13;;;;;;;3.75;3.55;;;;;;;;;;5090919;28;20538;-77
2022/03/17 05:01:38;;;;;;;6.88;4.35;;;;;;;;;;5091408;28;20483;-77
2022/03/17 05:04:04;;;;;;;3.92;3.67;;;;;;;;;;5091121;28;20408;-78
2022/03/17 05:06:29;;;;;;;4.03;3.72;;;;;;;;;;5091641;28;20392;-76
2022/03/17 05:08:55;;;;;;;4.45;4.05;;;;;;;;;;5090764;28;20411;-77
2022/03/17 05:11:20;;;;;;;4.00;3.70;;;;;;;;;;5090793;28;20016;-77
2022/03/17 05:13:46;;;;;;;3.90;3.47;;;;;;;;;;5091309;28;20031;-77
2022/03/17 05:16:13;;;;;;;7.57;6.25;;;;;;;;;;5091285;28;20551;-76
2022/03/17 05:18:38;;;;;;;3.55;3.05;;;;;;;;;;5092356;28;20377;-79
2022/03/17 05:21:04;;;;;;;9.52;5.10;;;;;;;;;;5091200;28;20047;-77
2022/03/17 05:23:31;;;;;;;4.50;3.83;;;;;;;;;;5090984;28;20024;-74
2022/03/17 05:25:56;;;;;;;12.10;7.63;;;;;;;;;;5091112;28;20103;-74
2022/03/17 05:28:22;;;;;;;5.95;5.55;;;;;;;;;;5091666;28;20063;-74
2022/03/17 05:30:47;;;;;;;5.72;5.22;;;;;;;;;;5091284;28;20020;-74
2022/03/17 05:33:13;;;;;;;5.78;5.32;;;;;;;;;;5091218;28;20051;-74
2022/03/17 05:35:39;;;;;;;4.57;4.15;;;;;;;;;;5096677;28;20387;-73
2022/03/17 05:38:04;;;;;;;4.00;3.22;;;;;;;;;;5096297;28;20122;-74
2022/03/17 05:40:30;;;;;;;5.50;4.75;;;;;;;;;;5095545;28;20047;-74
2022/03/17 05:42:56;;;;;;;3.97;3.70;;;;;;;;;;5095119;28;20016;-74
2022/03/17 05:45:22;;;;;;;9.73;5.47;;;;;;;;;;5095732;28;20023;-75
2022/03/17 05:47:49;;;;;;;5.15;4.70;;;;;;;;;;5094955;28;20016;-75
2022/03/17 05:50:15;;;;;;;6.70;6.20;;;;;;;;;;5095037;28;20024;-75
2022/03/17 05:52:42;;;;;;;7.97;4.90;;;;;;;;;;5094976;28;20016;-74
2022/03/17 05:55:08;;;;;;;5.05;4.70;;;;;;;;;;5096105;28;20384;-73
2022/03/17 05:57:34;;;;;;;6.43;5.75;;;;;;;;;;5094765;28;20032;-79
2022/03/17 05:59:59;;;;;;;10.32;6.70;;;;;;;;;;5094803;28;20031;-76
2022/03/17 06:02:25;;;;;;;13.68;6.80;;;;;;;;;;5094849;28;20058;-75
2022/03/17 06:04:50;;;;;;;8.52;7.80;;;;;;;;;;5094914;28;20016;-77
2022/03/17 06:07:15;;;;;;;11.80;10.30;;;;;;;;;;5094611;28;20016;-78
2022/03/17 06:09:41;;;;;;;9.55;7.57;;;;;;;;;;5094304;28;20070;-76
2022/03/17 06:12:08;;;;;;;8.00;7.32;;;;;;;;;;5094562;28;20019;-78
2022/03/17 06:14:34;;;;;;;25.80;12.63;;;;;;;;;;5094415;28;20480;-76
2022/03/17 06:16:59;;;;;;;15.80;14.07;;;;;;;;;;5094384;28;20027;-76
2022/03/17 06:19:24;;;;;;;23.52;12.13;;;;;;;;;;5095088;28;20024;-77
2022/03/17 06:21:50;;;;;;;15.20;12.40;;;;;;;;;;5094352;28;20016;-79
2022/03/17 06:24:15;;;;;;;15.02;11.65;;;;;;;;;;5094282;28;20403;-77
2022/03/17 06:26:40;;;;;;;10.30;8.52;;;;;;;;;;5094228;28;20020;-78
2022/03/17 06:29:06;;;;;;;8.25;4.78;;;;;;;;;;5094286;28;20024;-78
2022/03/17 06:31:31;;;;;;;4.35;3.92;;;;;;;;;;5094250;28;20400;-78
2022/03/17 06:33:57;;;;;;;5.85;5.20;;;;;;;;;;5093921;28;20526;-77
2022/03/17 06:36:22;;;;;;;8.05;5.25;;;;;;;;;;5093544;28;20067;-78
2022/03/17 06:38:48;;;;;;;3.55;3.28;;;;;;;;;;5094007;28;20020;-77
2022/03/17 06:41:13;;;;;;;11.40;4.90;;;;;;;;;;5093240;28;20036;-74
2022/03/17 06:43:38;;;;;;;2.58;2.38;;;;;;;;;;5093653;28;20019;-75
2022/03/17 06:46:04;;;;;;;5.65;4.55;;;;;;;;;;5093391;28;20046;-74
2022/03/17 06:48:29;;;;;;;10.38;7.32;;;;;;;;;;5093270;28;20028;-74
2022/03/17 06:50:55;;;;;;;5.35;4.25;;;;;;;;;;5094881;28;20062;-74
2022/03/17 06:53:20;;;;;;;5.80;5.10;;;;;;;;;;5094468;28;20550;-74
2022/03/17 06:55:45;;;;;;;6.72;6.15;;;;;;;;;;5092944;28;20027;-74
2022/03/17 06:58:11;;;;;;;6.40;5.83;;;;;;;;;;5093359;28;20392;-75
2022/03/17 07:00:36;;;;;;;4.28;3.78;;;;;;;;;;5093325;28;20315;-75
2022/03/17 07:03:01;;;;;;;12.20;5.37;;;;;;;;;;5092977;28;20069;-74
2022/03/17 07:05:27;;;;;;;13.35;8.25;;;;;;;;;;5093664;28;20609;-79
2022/03/17 07:07:53;;;;;;;6.47;5.03;;;;;;;;;;5092253;28;20400;-75
2022/03/17 07:10:18;;;;;;;10.02;8.10;;;;;;;;;;5091485;28;20022;-75
2022/03/17 07:12:44;;;;;;;5.93;5.53;;;;;;;;;;5092864;28;20024;-76
2022/03/17 07:15:09;;;;;;;7.32;4.85;;;;;;;;;;5092406;28;20467;-77
2022/03/17 07:17:41;;;;;;;8.38;6.40;;;;;;;;;;5092131;28;20067;-76
2022/03/17 07:20:06;;;;;;;3.88;3.55;;;;;;;;;;5090325;28;20016;-75
2022/03/17 07:22:32;;;;;;;5.47;5.03;;;;;;;;;;5091945;28;20023;-73
2022/03/17 07:24:57;;;;;;;8.23;6.28;;;;;;;;;;5092705;28;20020;-73
2022/03/17 07:27:23;;;;;;;6.70;4.88;;;;;;;;;;5092532;28;20023;-79
2022/03/17 07:29:49;;;;;;;8.40;7.78;;;;;;;;;;5094119;28;20043;-79
2022/03/17 07:32:14;;;;;;;8.38;5.88;;;;;;;;;;5092580;28;20059;-76
2022/03/17 07:34:39;;;;;;;15.40;7.20;;;;;;;;;;5092085;28;20077;-77
2022/03/17 07:37:05;;;;;;;11.35;9.10;;;;;;;;;;5092135;28;20028;-79
2022/03/17 07:39:30;;;;;;;4.20;3.97;;;;;;;;;;5091632;28;20028;-77
2022/03/17 07:41:55;;;;;;;6.80;6.22;;;;;;;;;;5093904;28;20023;-82
2022/03/17 07:44:21;;;;;;;5.78;5.38;;;;;;;;;;5092217;28;20077;-80
2022/03/17 07:46:48;;;;;;;5.82;5.35;;;;;;;;;;5092718;28;20095;-80
2022/03/17 07:49:13;;;;;;;6.78;6.07;;;;;;;;;;5092747;28;20047;-80
2022/03/17 07:51:39;;;;;;;5.30;4.40;;;;;;;;;;5093052;28;20075;-79
2022/03/17 07:54:04;;;;;;;4.68;4.13;;;;;;;;;;5091435;28;20024;-79
2022/03/17 07:56:30;;;;;;;7.85;3.22;;;;;;;;;;5090747;28;20023;-78
2022/03/17 07:58:55;;;;;;;7.15;5.55;;;;;;;;;;5092263;28;20407;-80
2022/03/17 08:01:24;;;;;;;3.15;2.92;;;;;;;;;;5092422;28;20027;-79
2022/03/17 08:03:50;;;;;;;4.65;3.92;;;;;;;;;;5093675;28;20460;-80
2022/03/17 08:06:15;;;;;;;2.83;2.63;;;;;;;;;;5092223;28;20027;-78
2022/03/17 08:08:41;;;;;;;2.95;2.70;;;;;;;;;;5092574;28;20148;-79
2022/03/17 08:11:07;;;;;;;3.30;3.03;;;;;;;;;;5092159;28;20502;-80
2022/03/17 08:13:32;;;;;;;4.22;3.90;;;;;;;;;;5092211;28;20051;-80
2022/03/17 08:15:58;;;;;;;2.58;2.47;;;;;;;;;;5092318;28;20110;-80
2022/03/17 08:18:24;;;;;;;8.75;2.40;;;;;;;;;;5092021;28;20081;-78
2022/03/17 08:20:49;;;;;;;2.85;2.58;;;;;;;;;;5091937;28;20415;-79
2022/03/17 08:23:21;;;;;;;2.67;2.55;;;;;;;;;;5091949;28;20024;-79
2022/03/17 08:25:46;;;;;;;2.47;2.38;;;;;;;;;;5091952;28;20012;-79
2022/03/17 08:28:11;;;;;;;4.65;4.25;;;;;;;;;;5091871;28;20020;-80
2022/03/17 08:30:37;;;;;;;6.83;5.97;;;;;;;;;;5091956;28;20021;-80
2022/03/17 08:33:02;;;;;;;4.43;4.05;;;;;;;;;;5091728;28;20769;-82
2022/03/17 08:35:27;;;;;;;5.15;4.65;;;;;;;;;;5091021;28;20097;-80
2022/03/17 08:37:53;;;;;;;3.72;3.45;;;;;;;;;;5091597;28;20028;-80
2022/03/17 08:40:18;;;;;;;6.22;4.25;;;;;;;;;;5091696;28;20024;-78
2022/03/17 08:42:44;;;;;;;4.50;4.18;;;;;;;;;;5092312;28;20107;-79
2022/03/17 08:50:42;;;;;;;5.47;3.55;;;;;;;;;;5093222;28;20085;-77
2022/03/17 08:53:08;;;;;;;5.55;5.13;;;;;;;;;;5091572;28;20012;-79
2022/03/17 08:55:34;;;;;;;5.63;3.40;;;;;;;;;;5091399;28;20026;-77
2022/03/17 08:57:59;;;;;;;4.10;3.70;;;;;;;;;;5091430;28;20020;-79
2022/03/17 09:00:25;;;;;;;5.28;2.95;;;;;;;;;;5090902;28;20081;-81
2022/03/17 09:02:50;;;;;;;4.25;2.88;;;;;;;;;;5090913;28;20016;-80
2022/03/17 09:05:17;;;;;;;6.43;5.88;;;;;;;;;;5091558;28;20471;-80
2022/03/17 09:07:42;;;;;;;8.23;5.97;;;;;;;;;;5090740;28;20016;-80
2022/03/17 09:10:07;;;;;;;3.63;3.40;;;;;;;;;;5090962;28;20020;-81
2022/03/17 09:12:38;;;;;;;3.28;3.08;;;;;;;;;;5091239;28;20016;-79
2022/03/17 09:15:04;;;;;;;4.80;4.40;;;;;;;;;;5091368;28;20024;-78
2022/03/17 09:17:30;;;;;;;3.45;3.25;;;;;;;;;;5091663;28;20480;-76
2022/03/17 09:19:55;;;;;;;4.28;2.60;;;;;;;;;;5091632;28;20026;-79
2022/03/17 09:22:20;;;;;;;5.53;3.13;;;;;;;;;;5091241;28;20047;-79
2022/03/17 09:24:48;;;;;;;3.47;2.22;;;;;;;;;;5091077;28;20110;-81
2022/03/17 09:27:14;;;;;;;4.03;3.72;;;;;;;;;;5091280;28;20099;-81
2022/03/17 09:29:40;;;;;;;3.47;3.28;;;;;;;;;;5091062;28;20504;-77
2022/03/17 09:32:06;;;;;;;6.38;3.13;;;;;;;;;;5091187;28;20024;-82
2022/03/17 09:34:32;;;;;;;3.08;2.88;;;;;;;;;;5090772;28;20054;-78
2022/03/17 09:36:57;;;;;;;3.17;3.05;;;;;;;;;;5092314;28;20031;-74
2022/03/17 09:42:06;;;;;;;2.78;2.63;;;;;;;;;;5092445;28;20127;-76
2022/03/17 09:44:32;;;;;;;2.38;2.28;;;;;;;;;;5090953;28;20047;-74
2022/03/17 09:46:59;;;;;;;1.25;1.25;;;;;;;;;;5090967;28;20396;-75
2022/03/17 09:49:25;;;;;;;4.07;2.20;;;;;;;;;;5090930;28;20024;-78
2022/03/17 09:51:54;;;;;;;2.97;2.65;;;;;;;;;;5090809;28;20051;-77
2022/03/17 09:54:20;;;;;;;1.23;1.23;;;;;;;;;;5090930;28;20020;-78
2022/03/17 09:56:45;;;;;;;2.22;2.15;;;;;;;;;;5091933;28;20017;-77
2022/03/17 09:59:10;;;;;;;1.58;1.48;;;;;;;;;;5090645;28;20030;-77
2022/03/17 10:01:36;;;;;;;5.15;4.78;;;;;;;;;;5090759;28;20016;-77
2022/03/17 10:04:02;;;;;;;16.17;5.95;;;;;;;;;;5092034;28;20012;-76
2022/03/17 10:06:28;;;;;;;11.70;6.68;;;;;;;;;;5090855;28;20565;-75
2022/03/17 10:08:54;;;;;;;6.43;4.22;;;;;;;;;;5090778;28;20069;-77
2022/03/17 10:11:24;;;;;;;3.15;2.92;;;;;;;;;;5091096;28;20020;-80
2022/03/17 10:13:49;;;;;;;2.08;2.00;;;;;;;;;;5091258;28;20012;-77
2022/03/17 10:16:20;;;;;;;3.30;2.47;;;;;;;;;;5090612;28;20024;-78
2022/03/17 10:18:48;;;;;;;5.00;3.47;;;;;;;;;;5090640;28;20027;-79
2022/03/17 10:21:16;;;;;;;2.50;2.30;;;;;;;;;;5092852;28;20107;-80
2022/03/17 10:23:49;;;;;;;2.58;2.33;;;;;;;;;;5093009;28;20466;-77
2022/03/17 10:26:32;;;;;;;2.30;1.98;;;;;;;;;;5094009;28;20040;-76
2022/03/17 10:29:03;;;;;;;7.05;6.18;;;;;;;;;;5095171;28;20023;-75
2022/03/17 10:31:29;;;;;;;3.45;3.00;;;;;;;;;;5095008;28;20464;-75
2022/03/17 10:33:54;;;;;;;4.50;4.05;;;;;;;;;;5093707;28;20046;-78
2022/03/17 10:36:22;;;;;;;5.32;2.95;;;;;;;;;;5093481;28;20154;-76
2022/03/17 10:38:49;;;;;;;;;;;;;;;;;;5094214;28;20020;-77
2022/03/17 10:41:14;;;;;;;8.52;7.72;;;;;;;;;;5093610;28;19950;-77
2022/03/17 10:43:43;;;;;;;20.45;8.60;;;;;;;;;;5093543;28;20364;-77
2022/03/17 10:46:16;;;;;;;4.78;4.38;;;;;;;;;;5093843;28;20027;-78
2022/03/17 10:48:56;;;;;;;7.05;6.40;;;;;;;;;;5093599;28;20093;-76
2022/03/17 10:51:32;;;;;;;6.45;4.88;;;;;;;;;;5093385;28;20471;-75
2022/03/17 10:54:02;;;;;;;3.60;3.30;;;;;;;;;;5093432;28;20055;-73
2022/03/17 10:56:27;;;;;;;4.78;4.47;;;;;;;;;;5093258;28;20047;-76
2022/03/17 10:58:53;;;;;;;5.20;4.80;;;;;;;;;;5093005;28;20518;-76
2022/03/17 11:01:22;;;;;;;3.05;2.85;;;;;;;;;;5093009;28;20112;-78
2022/03/17 11:03:48;;;;;;;3.95;2.67;;;;;;;;;;5093195;28;20024;-77
2022/03/17 11:06:15;;;;;;;6.32;4.30;;;;;;;;;;5093107;28;20399;-77
2022/03/17 11:08:41;;;;;;;8.68;4.68;;;;;;;;;;5093218;28;20056;-77
2022/03/17 11:11:08;;;;;;;5.20;3.03;;;;;;;;;;5093385;28;20447;-77
2022/03/17 11:13:33;;;;;;;5.28;4.88;;;;;;;;;;5092637;28;20391;-77
2022/03/17 11:16:05;;;;;;;7.47;5.45;;;;;;;;;;5093040;28;20023;-77
2022/03/17 11:18:32;;;;;;;3.53;3.22;;;;;;;;;;5092986;28;20119;-77
2022/03/17 11:21:20;;;;;;;2.50;2.30;;;;;;;;;;5093116;28;20016;-77
2022/03/17 11:23:49;;;;;;;;;;;;;;;;;;5094469;28;20039;-77
2022/03/17 11:26:20;;;;;;;2.40;2.30;;;;;;;;;;5092772;28;19957;-78
2022/03/17 11:28:47;;;;;;;5.32;4.80;;;;;;;;;;5092713;28;20055;-76
2022/03/17 11:31:17;;;;;;;4.30;3.87;;;;;;;;;;5091818;28;20428;-76
2022/03/17 11:33:43;;;;;;;4.78;3.70;;;;;;;;;;5092414;28;20031;-78
2022/03/17 11:36:08;;;;;;;3.78;3.58;;;;;;;;;;5092324;28;20055;-79
2022/03/17 11:38:37;;;;;;;4.10;3.73;;;;;;;;;;5093489;28;20449;-77
2022/03/17 11:41:06;;;;;;;11.52;5.40;;;;;;;;;;5091095;28;20090;-76
2022/03/17 11:43:38;;;;;;;5.13;4.68;;;;;;;;;;5092065;28;20032;-77
2022/03/17 11:46:11;;;;;;;4.97;4.10;;;;;;;;;;5092135;28;20106;-76
2022/03/17 11:48:39;;;;;;;6.47;4.60;;;;;;;;;;5092274;28;20415;-79
2022/03/17 11:51:06;;;;;;;3.13;2.55;;;;;;;;;;5092654;28;20165;-80
2022/03/17 11:53:37;;;;;;;7.22;4.28;;;;;;;;;;5092108;28;20077;-76
2022/03/17 11:56:03;;;;;;;4.85;3.80;;;;;;;;;;5092499;28;20016;-80
2022/03/17 11:58:46;;;;;;;3.83;3.55;;;;;;;;;;5092353;28;20388;-78
2022/03/17 12:01:11;;;;;;;3.42;2.65;;;;;;;;;;5092195;28;20075;-79
2022/03/17 12:03:37;;;;;;;4.85;4.32;;;;;;;;;;5092036;28;20103;-79
2022/03/17 12:06:15;;;;;;;5.10;4.28;;;;;;;;;;5092679;28;20110;-79
2022/03/17 12:08:43;;;;;;;7.75;4.50;;;;;;;;;;5092092;28;20012;-79
2022/03/17 12:11:10;;;;;;;7.28;5.32;;;;;;;;;;5092426;28;20403;-78
2022/03/17 12:13:36;;;;;;;4.38;3.58;;;;;;;;;;5092107;28;20027;-80
2022/03/17 12:16:02;;;;;;;5.22;4.32;;;;;;;;;;5092013;28;20020;-80
2022/03/17 12:18:28;;;;;;;7.10;5.32;;;;;;;;;;5092006;28;20020;-80
2022/03/17 12:20:53;;;;;;;3.72;3.45;;;;;;;;;;5092035;28;20042;-79
2022/03/17 12:23:37;;;;;;;8.18;4.38;;;;;;;;;;5092333;28;20505;-80
2022/03/17 12:26:06;;;;;;;3.20;2.78;;;;;;;;;;5091899;28;20111;-79
2022/03/17 12:28:31;;;;;;;5.93;5.28;;;;;;;;;;5091858;28;20030;-79
2022/03/17 12:30:57;;;;;;;5.63;5.13;;;;;;;;;;5091608;28;20111;-79
2022/03/17 12:33:23;;;;;;;5.70;4.57;;;;;;;;;;5091660;28;20468;-79
2022/03/17 12:36:02;;;;;;;7.00;4.40;;;;;;;;;;5091437;28;20101;-79
2022/03/17 12:38:28;;;;;;;4.47;4.07;;;;;;;;;;5091753;28;20403;-79
2022/03/17 12:40:53;;;;;;;2.95;2.75;;;;;;;;;;5091532;28;20020;-79
2022/03/17 12:43:20;;;;;;;6.60;4.22;;;;;;;;;;5091302;28;20393;-79
2022/03/17 12:45:49;;;;;;;4.35;4.07;;;;;;;;;;5091593;28;20054;-79
2022/03/17 12:48:16;;;;;;;6.10;5.25;;;;;;;;;;5091573;28;20111;-80
2022/03/17 12:50:41;;;;;;;4.00;3.58;;;;;;;;;;5091809;28;20073;-81
2022/03/17 12:53:08;;;;;;;9.27;3.42;;;;;;;;;;5091900;28;20074;-79
2022/03/17 12:55:34;;;;;;;3.63;3.40;;;;;;;;;;5091448;28;20108;-79
2022/03/17 12:58:01;;;;;;;4.72;4.43;;;;;;;;;;5091258;28;20513;-80
2022/03/17 13:00:26;;;;;;;2.92;2.75;;;;;;;;;;5091137;28;20028;-79
2022/03/17 13:02:55;;;;;;;3.78;3.50;;;;;;;;;;5091339;28;20016;-79
2022/03/17 13:08:06;;;;;;;4.63;4.20;;;;;;;;;;5092807;28;20023;-79
2022/03/17 13:16:00;;;;;;;11.00;6.28;;;;;;;;;;5092450;28;20070;-78
2022/03/17 13:18:38;;;;;;;8.75;5.70;;;;;;;;;;5091124;28;20047;-81
2022/03/17 13:21:04;;;;;;;4.13;3.63;;;;;;;;;;5092507;28;20031;-80
2022/03/17 13:23:36;;;;;;;11.93;7.32;;;;;;;;;;5091459;28;20023;-80
2022/03/17 13:26:01;;;;;;;6.43;5.85;;;;;;;;;;5091077;28;20059;-78
2022/03/17 13:28:27;;;;;;;6.53;5.88;;;;;;;;;;5091009;28;20020;-79
2022/03/17 13:30:52;;;;;;;11.07;4.65;;;;;;;;;;5090997;28;20027;-79
2022/03/17 13:33:38;;;;;;;3.03;2.47;;;;;;;;;;5090802;28;20023;-77
2022/03/17 13:36:03;;;;;;;8.73;4.30;;;;;;;;;;5090230;28;20090;-79
2022/03/17 13:38:37;;;;;;;9.15;8.35;;;;;;;;;;5090915;28;20509;-79
2022/03/17 13:41:02;;;;;;;6.15;4.50;;;;;;;;;;5090965;28;20055;-79
2022/03/17 13:43:29;;;;;;;5.95;4.75;;;;;;;;;;5091011;28;20093;-79
2022/03/17 13:45:55;;;;;;;4.95;3.90;;;;;;;;;;5090885;28;20048;-79
2022/03/17 13:48:21;;;;;;;3.55;3.28;;;;;;;;;;5090879;28;20101;-80
2022/03/17 13:50:51;;;;;;;5.38;4.88;;;;;;;;;;5091507;28;20081;-80
2022/03/17 13:53:17;;;;;;;4.90;4.25;;;;;;;;;;5090573;28;20027;-81
2022/03/17 13:55:42;;;;;;;5.82;4.32;;;;;;;;;;5093463;28;20036;-79
2022/03/17 13:58:09;;;;;;;4.85;4.35;;;;;;;;;;5094685;28;20399;-79
2022/03/17 14:00:34;;;;;;;5.13;4.70;;;;;;;;;;5095620;28;20024;-78
